Time;durP1;ratioP1;P1;durP2;ratioP2;P2;SDS_P1;SDS_P2;PMS_P1;PMS_P2;Temp;Humidity;BMP_temperature;BMP_pressure;BME280_temperature;BME280_humidity;BME280_pressure;Samples;Min_cycle;Max_cycle;Signal;HPM_P1;HPM_P2
2021/05/11 00:00:37;;;;;;;0.87;0.80;;;;;;;14.16;75.84;97124.22;5002626;28;20895;-71
2021/05/11 00:03:04;;;;;;;2.00;1.07;;;;;;;14.09;75.79;97112.78;5004124;28;20216;-72
2021/05/11 00:05:31;;;;;;;3.47;0.80;;;;;;;14.17;75.34;97103.75;5003748;28;20677;-71
2021/05/11 00:08:00;;;;;;;1.43;0.97;;;;;;;14.15;76.19;97098.63;5004755;28;20213;-71
2021/05/11 00:10:28;;;;;;;0.63;0.63;;;;;;;14.15;75.45;97098.63;5003553;28;20697;-71
2021/05/11 00:12:56;;;;;;;1.00;1.00;;;;;;;14.10;76.07;97087.78;5004011;28;20204;-72
2021/05/11 00:15:24;;;;;;;0.70;0.70;;;;;;;14.18;75.26;97081.41;5003914;28;20243;-69
2021/05/11 00:17:51;;;;;;;1.13;1.00;;;;;;;14.00;76.80;97096.19;5002255;28;20219;-70
2021/05/11 00:20:19;;;;;;;0.70;0.70;;;;;;;13.94;77.79;97098.88;5002720;28;20243;-72
2021/05/11 00:22:46;;;;;;;0.70;0.70;;;;;;;14.04;76.51;97108.09;5004168;28;20300;-71
2021/05/11 00:25:13;;;;;;;0.73;0.73;;;;;;;13.92;77.90;97109.72;5004267;28;20224;-70
2021/05/11 00:27:41;;;;;;;0.80;0.80;;;;;;;14.06;76.54;97105.19;5002893;28;20204;-74
2021/05/11 00:30:10;;;;;;;2.30;1.17;;;;;;;14.03;76.86;97114.44;5004540;28;20621;-71
2021/05/11 00:32:38;;;;;;;1.07;1.07;;;;;;;13.84;78.19;97123.28;5004123;28;20212;-72
2021/05/11 00:35:06;;;;;;;0.90;0.90;;;;;;;13.94;77.41;97122.84;5004098;28;20232;-71
2021/05/11 00:37:33;;;;;;;0.70;0.70;;;;;;;13.98;78.17;97113.41;5003923;28;20246;-70
2021/05/11 00:40:00;;;;;;;0.90;0.90;;;;;;;13.96;78.10;97112.81;5004315;28;20224;-73
2021/05/11 00:42:27;;;;;;;0.80;0.80;;;;;;;14.12;76.09;97111.56;5003736;28;20666;-71
2021/05/11 00:44:54;;;;;;;1.37;0.93;;;;;;;13.97;77.54;97122.44;5004425;28;20205;-72
2021/05/11 00:47:20;;;;;;;0.70;0.70;;;;;;;13.89;78.30;97107.47;5003557;28;20204;-73
2021/05/11 00:49:49;;;;;;;1.17;1.17;;;;;;;14.08;77.24;97094.34;5004185;28;20204;-72
2021/05/11 00:52:16;;;;;;;0.73;0.73;;;;;;;13.85;77.65;97115.09;5002810;28;20263;-71
2021/05/11 00:54:43;;;;;;;1.23;0.70;;;;;;;13.91;77.63;97123.28;5001540;28;20252;-72
2021/05/11 00:57:11;;;;;;;1.03;0.97;;;;;;;13.76;78.00;97110.97;4998092;28;20213;-71
2021/05/11 00:59:38;;;;;;;0.90;0.90;;;;;;;13.66;78.97;97111.41;5001663;28;20626;-70
2021/05/11 01:02:06;;;;;;;0.70;0.70;;;;;;;13.93;77.62;97097.25;5003325;28;20812;-71
2021/05/11 01:04:37;;;;;;;0.67;0.67;;;;;;;13.88;77.41;97080.06;5002639;28;20204;-72
2021/05/11 01:07:05;;;;;;;1.27;1.17;;;;;;;13.77;79.05;97071.88;5002799;28;20404;-72
2021/05/11 01:09:33;;;;;;;0.60;0.60;;;;;;;13.84;78.27;97054.88;5003384;28;20208;-70
2021/05/11 01:12:00;;;;;;;0.70;0.70;;;;;;;13.77;79.06;97056.69;5002124;28;20240;-71
2021/05/11 01:14:28;;;;;;;0.60;0.60;;;;;;;13.80;77.95;97048.28;5004210;28;20220;-69
2021/05/11 01:16:57;;;;;;;1.27;1.10;;;;;;;13.90;77.41;97047.88;5003311;28;20205;-70
2021/05/11 01:19:27;;;;;;;0.90;0.90;;;;;;;13.80;77.86;97034.97;5003614;28;20212;-73
2021/05/11 01:22:35;;;;;;;0.73;0.73;;;;;;;13.77;79.06;97046.03;5003489;28;20209;-68
2021/05/11 01:25:05;;;;;;;1.17;0.90;;;;;;;13.77;78.60;97032.72;5003245;28;20197;-70
2021/05/11 01:27:42;;;;;;;1.10;1.10;;;;;;;13.86;78.42;97014.69;5003092;28;20212;-70
2021/05/11 01:30:29;;;;;;;0.70;0.70;;;;;;;13.64;78.87;97038.09;5001333;28;20624;-71
2021/05/11 01:33:15;;;;;;;0.80;0.80;;;;;;;13.46;80.35;97061.66;4997465;28;20214;-71
2021/05/11 01:44:04;;;;;;;0.80;0.80;;;;;;;13.43;81.37;97054.09;5001638;28;20216;-71
2021/05/11 01:49:20;;;;;;;0.60;0.60;;;;;;;13.44;80.94;97042.41;4997430;28;20301;-70
2021/05/11 01:52:11;;;;;;;1.30;1.20;;;;;;;13.37;81.61;97033.59;5003147;28;20225;-72
2021/05/11 01:55:02;;;;;;;1.30;1.20;;;;;;;13.34;81.40;97025.19;5002664;28;20205;-69
2021/05/11 02:22:41;;;;;;;1.20;1.20;;;;;;;13.36;82.54;97023.13;5006220;28;20826;-71
2021/05/11 02:25:09;;;;;;;0.70;0.70;;;;;;;13.28;82.39;97026.84;5006110;28;20215;-71
2021/05/11 02:27:38;;;;;;;0.80;0.80;;;;;;;13.10;83.88;97032.78;5006956;28;20216;-71
2021/05/11 02:30:08;;;;;;;1.23;1.20;;;;;;;13.05;84.67;97040.50;5006554;28;20237;-70
2021/05/11 02:32:35;;;;;;;1.07;1.03;;;;;;;12.90;85.66;97038.06;5004106;28;20216;-71
2021/05/11 02:35:03;;;;;;;0.90;0.90;;;;;;;12.90;86.10;97046.06;5006107;28;20229;-71
2021/05/11 02:37:30;;;;;;;1.70;1.00;;;;;;;12.88;86.44;97032.94;5005356;28;20244;-71
2021/05/11 02:39:57;;;;;;;0.97;0.97;;;;;;;12.83;86.79;97032.72;5005208;28;20225;-70
2021/05/11 02:42:24;;;;;;;1.37;0.90;;;;;;;12.69;87.91;97030.06;5005704;28;20590;-74
2021/05/11 02:44:53;;;;;;;1.83;1.23;;;;;;;12.71;88.01;97025.34;5005239;28;20411;-72
2021/05/11 02:47:20;;;;;;;1.40;1.37;;;;;;;12.70;88.15;97037.00;5004966;28;20235;-71
2021/05/11 02:49:49;;;;;;;1.00;1.00;;;;;;;12.76;87.77;97023.94;5005289;28;20205;-72
2021/05/11 02:52:16;;;;;;;1.33;1.23;;;;;;;12.73;88.14;97028.63;5004461;28;20213;-72
2021/05/11 02:54:43;;;;;;;1.17;1.17;;;;;;;12.69;88.47;97010.63;5004892;28;20238;-70
2021/05/11 02:57:10;;;;;;;1.23;1.10;;;;;;;13.08;85.83;96986.94;5002145;28;20212;-73
2021/05/11 02:59:39;;;;;;;1.20;1.13;;;;;;;13.12;85.21;96982.84;5001311;28;20289;-70
2021/05/11 03:02:09;;;;;;;0.83;0.83;;;;;;;13.00;85.76;96983.44;5004812;28;20218;-70
2021/05/11 03:04:36;;;;;;;1.37;1.30;;;;;;;12.94;86.29;96976.28;5006067;28;20209;-72
2021/05/11 03:07:03;;;;;;;2.23;1.40;;;;;;;12.97;86.49;96980.38;5005826;28;20240;-69
2021/05/11 03:09:30;;;;;;;1.20;1.10;;;;;;;12.91;86.87;96982.00;5005925;28;20215;-70
2021/05/11 03:11:57;;;;;;;1.10;1.10;;;;;;;12.73;87.47;96983.44;5005254;28;20231;-71
2021/05/11 03:14:24;;;;;;;0.90;0.90;;;;;;;12.69;88.43;96998.16;5002711;28;20208;-70
2021/05/11 03:16:53;;;;;;;1.40;1.20;;;;;;;12.83;88.35;96992.84;5005646;28;20751;-70
2021/05/11 03:19:23;;;;;;;1.47;1.40;;;;;;;12.61;88.85;97019.59;5005223;28;20209;-73
2021/05/11 03:21:50;;;;;;;1.13;1.13;;;;;;;12.44;90.70;97022.63;5005899;28;20227;-69
2021/05/11 03:24:17;;;;;;;1.30;1.20;;;;;;;12.36;91.77;97025.47;5003934;28;20304;-72
2021/05/11 03:26:43;;;;;;;1.53;1.53;;;;;;;12.23;93.09;97026.22;5005524;28;20291;-69
2021/05/11 03:29:11;;;;;;;1.43;1.33;;;;;;;12.11;94.30;97018.00;5004834;28;20220;-69
2021/05/11 03:31:38;;;;;;;1.70;1.57;;;;;;;12.22;93.46;97018.44;5005282;28;20224;-71
2021/05/11 03:34:05;;;;;;;1.73;1.63;;;;;;;12.39;92.57;97018.91;5005916;28;20216;-71
2021/05/11 03:36:33;;;;;;;1.80;1.80;;;;;;;12.30;92.42;97023.59;5005119;28;20308;-70
2021/05/11 03:39:03;;;;;;;1.80;1.70;;;;;;;12.23;93.36;97025.41;5005691;28;20201;-72
2021/05/11 03:41:36;;;;;;;1.77;1.67;;;;;;;12.29;93.17;97020.13;5005280;28;20263;-72
2021/05/11 03:44:06;;;;;;;1.63;1.50;;;;;;;12.40;92.28;97031.19;5005792;28;20209;-71
2021/05/11 03:46:34;;;;;;;3.13;1.70;;;;;;;12.24;93.43;97035.00;5003381;28;20304;-69
2021/05/11 03:49:02;;;;;;;2.23;2.03;;;;;;;12.25;93.74;97034.81;5003027;28;20224;-72
2021/05/11 03:51:30;;;;;;;1.67;1.60;;;;;;;12.25;94.45;97036.66;5004536;28;20235;-72
2021/05/11 03:53:58;;;;;;;1.50;1.50;;;;;;;12.37;93.38;97026.28;5004255;28;20204;-73
2021/05/11 03:56:25;;;;;;;1.90;1.70;;;;;;;12.34;93.34;97030.16;5003085;28;20578;-71
2021/05/11 03:58:53;;;;;;;2.20;2.00;;;;;;;12.42;92.49;97034.47;5003331;28;20212;-71
2021/05/11 04:01:21;;;;;;;2.10;2.00;;;;;;;12.26;93.76;97044.44;5006606;28;20676;-73
2021/05/11 04:03:48;;;;;;;1.93;1.83;;;;;;;12.28;94.00;97038.91;5002939;28;20231;-71
2021/05/11 04:06:16;;;;;;;1.70;1.60;;;;;;;12.11;95.68;97031.28;5002587;28;20206;-68
2021/05/11 04:08:47;;;;;;;2.33;1.93;;;;;;;12.20;95.64;97031.09;5003034;28;20597;-68
2021/05/11 04:11:28;;;;;;;2.20;2.10;;;;;;;12.13;95.66;97023.94;5001350;28;20229;-69
2021/05/11 04:16:44;;;;;;;2.33;2.23;;;;;;;12.29;94.83;97020.13;4971424;28;20229;-70
2021/05/11 04:19:13;;;;;;;2.40;2.30;;;;;;;12.26;95.19;97015.22;5000880;28;20221;-69
2021/05/11 04:21:40;;;;;;;2.40;2.30;;;;;;;12.37;95.09;97013.81;5001076;28;20228;-70
2021/05/11 04:24:08;;;;;;;3.10;2.90;;;;;;;12.47;94.19;97010.75;4999609;28;20213;-70
2021/05/11 04:26:36;;;;;;;3.33;3.13;;;;;;;12.49;93.15;97010.56;5003198;28;20216;-70
2021/05/11 04:29:04;;;;;;;3.50;3.30;;;;;;;12.57;93.19;97002.41;5002524;28;20598;-70
2021/05/11 04:31:34;;;;;;;2.77;2.57;;;;;;;12.40;93.64;97002.78;4999850;28;20232;-69
2021/05/11 04:34:02;;;;;;;3.30;3.20;;;;;;;12.32;95.00;97018.91;5002311;28;20209;-70
2021/05/11 04:36:30;;;;;;;3.57;3.37;;;;;;;12.45;94.75;97012.81;5001243;28;20229;-69
2021/05/11 04:38:57;;;;;;;2.93;2.80;;;;;;;12.56;94.31;97012.25;5002901;28;20205;-70
2021/05/11 04:41:25;;;;;;;3.37;3.17;;;;;;;12.49;94.24;97015.88;5003362;28;20256;-70
2021/05/11 04:43:53;;;;;;;3.77;3.47;;;;;;;12.41;95.38;97011.56;5003172;28;20201;-70
2021/05/11 04:46:26;;;;;;;4.07;3.33;;;;;;;12.51;95.20;97027.13;5003101;28;20207;-70
2021/05/11 04:48:54;;;;;;;3.63;3.43;;;;;;;12.37;95.92;97039.56;4998664;28;20212;-70
2021/05/11 04:51:22;;;;;;;3.47;3.27;;;;;;;12.31;95.97;97041.16;5000313;28;20225;-69
2021/05/11 04:53:49;;;;;;;3.53;3.23;;;;;;;12.23;97.14;97033.38;5002823;28;20212;-71
2021/05/11 04:56:17;;;;;;;3.20;3.00;;;;;;;12.20;97.47;97026.63;5002933;28;20597;-70
2021/05/11 04:58:44;;;;;;;3.40;3.20;;;;;;;12.44;96.05;97021.78;4999625;28;20221;-68
2021/05/11 05:01:12;;;;;;;3.63;3.40;;;;;;;12.20;96.58;97025.78;5000358;28;20260;-67
2021/05/11 05:03:41;;;;;;;3.80;3.50;;;;;;;12.07;98.19;97032.69;5000684;28;20839;-69
2021/05/11 05:06:09;;;;;;;3.57;3.37;;;;;;;12.04;98.41;97032.25;5000550;28;20216;-70
2021/05/11 05:08:36;;;;;;;4.43;4.13;;;;;;;12.14;97.49;97030.09;5002728;28;20213;-70
2021/05/11 05:11:04;;;;;;;3.80;3.60;;;;;;;12.22;96.83;97019.28;4998839;28;20471;-70
2021/05/11 05:13:31;;;;;;;4.37;4.10;;;;;;;12.25;97.62;97016.22;5000345;28;20235;-70
2021/05/11 05:15:59;;;;;;;4.23;3.93;;;;;;;12.33;96.59;97017.91;4996680;28;20225;-68
2021/05/11 05:18:28;;;;;;;4.37;4.03;;;;;;;12.33;96.43;97027.69;5001296;28;20744;-70
2021/05/11 05:20:56;;;;;;;3.93;3.73;;;;;;;12.20;97.83;97029.28;4996708;28;20224;-70
2021/05/11 05:23:29;;;;;;;4.37;4.13;;;;;;;12.22;97.40;97024.59;4995278;28;20575;-70
2021/05/11 05:26:02;;;;;;;5.47;4.97;;;;;;;12.38;96.38;97027.91;4999910;28;20201;-70
2021/05/11 05:28:29;;;;;;;4.63;4.23;;;;;;;12.40;96.34;97018.72;4997973;28;20952;-70
2021/05/11 05:31:00;;;;;;;4.57;4.27;;;;;;;12.50;95.89;97002.41;5000668;28;20721;-70
2021/05/11 05:33:33;;;;;;;4.97;4.67;;;;;;;12.69;94.09;97002.66;4999793;28;20685;-70
2021/05/11 05:36:01;;;;;;;5.13;4.63;;;;;;;12.72;93.66;96996.91;5000982;28;20229;-70
2021/05/11 05:38:29;;;;;;;4.93;4.63;;;;;;;12.62;94.69;97005.28;4999176;28;20607;-70
2021/05/11 05:41:00;;;;;;;5.80;5.40;;;;;;;12.64;94.76;97005.91;5000669;28;20243;-68
2021/05/11 05:43:29;;;;;;;5.57;5.17;;;;;;;12.78;93.06;97006.75;4999004;28;20210;-69
2021/05/11 05:45:57;;;;;;;5.30;4.80;;;;;;;12.85;92.68;97007.56;5000977;28;20201;-67
2021/05/11 05:48:24;;;;;;;5.20;4.90;;;;;;;12.81;94.00;97019.63;4999520;28;20213;-70
2021/05/11 05:50:55;;;;;;;5.83;5.23;;;;;;;12.91;92.54;97018.44;5000789;28;20229;-70
2021/05/11 05:53:26;;;;;;;4.80;4.50;;;;;;;13.01;91.98;97021.50;4997297;28;20205;-70
2021/05/11 05:55:53;;;;;;;5.27;4.90;;;;;;;12.96;92.16;97029.28;4998946;28;20212;-69
2021/05/11 05:58:21;;;;;;;5.47;5.10;;;;;;;13.09;91.78;97028.47;4997508;28;20223;-69
2021/05/11 06:00:52;;;;;;;5.53;4.87;;;;;;;13.36;90.08;97025.78;5000211;28;20613;-70
2021/05/11 06:03:34;;;;;;;5.07;4.73;;;;;;;13.43;89.63;97021.31;4997782;28;20221;-72
2021/05/11 06:06:04;;;;;;;5.43;5.03;;;;;;;13.60;88.03;97019.88;5000219;28;20240;-72
2021/05/11 06:08:32;;;;;;;4.60;4.30;;;;;;;13.58;86.94;97008.63;5000289;28;20247;-70
2021/05/11 06:11:04;;;;;;;4.90;4.50;;;;;;;13.47;87.72;97003.94;4997675;28;20228;-72
2021/05/11 06:13:37;;;;;;;5.90;5.43;;;;;;;13.65;86.07;97011.28;4999263;28;20728;-73
2021/05/11 06:18:51;;;;;;;5.50;5.10;;;;;;;13.84;86.32;97032.72;5001079;28;20205;-71
2021/05/11 06:21:20;;;;;;;6.27;5.10;;;;;;;13.87;85.79;97043.78;4997991;28;20235;-71
2021/05/11 06:23:48;;;;;;;5.20;4.80;;;;;;;13.86;85.21;97039.50;4997014;28;20210;-71
2021/05/11 06:26:15;;;;;;;4.93;4.53;;;;;;;14.20;83.11;97036.72;4999866;28;20668;-71
2021/05/11 06:28:44;;;;;;;4.87;4.43;;;;;;;14.35;82.49;97032.97;4998704;28;20209;-71
2021/05/11 06:31:12;;;;;;;5.20;4.80;;;;;;;14.21;83.11;97033.03;5000427;28;20225;-69
2021/05/11 06:33:39;;;;;;;4.90;4.50;;;;;;;14.42;82.82;97028.44;4999174;28;20209;-69
2021/05/11 06:36:07;;;;;;;4.73;4.43;;;;;;;14.81;80.01;97034.63;5000392;28;20596;-67
2021/05/11 06:38:35;;;;;;;4.47;4.17;;;;;;;14.79;79.31;97033.19;4999482;28;20201;-70
2021/05/11 06:41:03;;;;;;;5.07;4.57;;;;;;;15.07;77.92;97029.31;4999645;28;20251;-70
2021/05/11 06:43:32;;;;;;;4.43;4.13;;;;;;;14.99;78.20;97038.38;4999470;28;20209;-71
2021/05/11 06:46:38;;;;;;;4.37;3.97;;;;;;;15.03;77.45;97032.41;5001008;28;20205;-71
2021/05/11 06:49:13;;;;;;;4.57;4.27;;;;;;;15.01;77.92;97045.16;4999071;28;20208;-71
2021/05/11 06:54:26;;;;;;;3.90;3.70;;;;;;;14.75;80.28;97076.28;4996609;28;20202;-72
2021/05/11 06:56:54;;;;;;;5.87;5.37;;;;;;;14.73;80.67;97059.69;5001825;28;20704;-70
2021/05/11 06:59:21;;;;;;;5.00;4.43;;;;;;;14.90;79.73;97056.50;5001844;28;20219;-74
2021/05/11 07:01:49;;;;;;;4.57;4.27;;;;;;;15.02;79.39;97040.63;5004066;28;20243;-70
2021/05/11 07:04:16;;;;;;;4.97;4.67;;;;;;;15.28;77.97;97023.59;5003536;28;20327;-71
2021/05/11 07:06:44;;;;;;;5.17;4.87;;;;;;;15.34;77.62;97020.06;5003434;28;20326;-72
2021/05/11 07:09:15;;;;;;;5.03;4.50;;;;;;;15.42;76.92;97015.47;5003124;28;20209;-70
2021/05/11 07:14:30;;;;;;;5.47;4.30;;;;;;;15.55;75.69;96991.31;5003956;28;20217;-73
2021/05/11 07:16:58;;;;;;;4.57;4.27;;;;;;;15.48;76.22;96986.03;5003821;28;20228;-70
2021/05/11 07:19:26;;;;;;;4.80;4.43;;;;;;;15.67;74.60;96985.25;5001327;28;20213;-72
2021/05/11 07:21:53;;;;;;;4.53;4.23;;;;;;;15.66;74.78;96978.25;5001978;28;20527;-69
2021/05/11 07:24:26;;;;;;;4.43;4.13;;;;;;;15.87;73.32;96979.69;5002880;28;20527;-72
2021/05/11 07:27:13;;;;;;;4.20;3.90;;;;;;;15.77;73.43;96967.66;5003633;28;20205;-74
2021/05/11 07:29:45;;;;;;;4.93;4.57;;;;;;;15.81;73.04;96968.06;5000288;28;20238;-71
2021/05/11 07:32:13;;;;;;;4.40;4.10;;;;;;;15.67;73.00;96955.88;5001940;28;20581;-69
2021/05/11 07:34:43;;;;;;;4.27;3.90;;;;;;;15.38;74.75;96963.56;5002199;28;20296;-72
2021/05/11 07:37:11;;;;;;;5.03;4.63;;;;;;;15.16;76.84;96966.63;5001726;28;20232;-71
2021/05/11 07:39:41;;;;;;;3.57;3.37;;;;;;;15.43;75.44;96959.19;4998847;28;20384;-69
2021/05/11 07:42:09;;;;;;;3.60;3.33;;;;;;;15.54;75.30;96952.31;5001975;28;20463;-71
2021/05/11 07:44:40;;;;;;;4.30;4.00;;;;;;;15.93;72.90;96954.78;5000985;28;20219;-69
2021/05/11 07:47:11;;;;;;;3.50;3.30;;;;;;;15.72;73.17;96954.16;5002795;28;20693;-71
2021/05/11 08:17:17;;;;;;;4.20;3.80;;;;;;;15.07;76.23;96981.28;4994752;28;20225;-69
2021/05/11 08:22:45;;;;;;;3.67;3.37;;;;;;;15.31;76.01;96958.28;4999873;28;20704;-67
2021/05/11 08:27:59;;;;;;;4.67;4.33;;;;;;;15.69;74.00;96961.78;5000692;28;20216;-67
2021/05/11 08:30:29;;;;;;;3.97;3.67;;;;;;;16.00;72.40;96968.06;5000070;28;20258;-68
2021/05/11 08:32:57;;;;;;;3.63;3.33;;;;;;;16.03;72.49;96960.41;5000853;28;20220;-67
2021/05/11 08:35:24;;;;;;;4.03;3.80;;;;;;;16.10;72.69;96952.34;5000433;28;20215;-68
2021/05/11 08:37:52;;;;;;;3.63;3.43;;;;;;;16.45;70.73;96956.97;5000595;28;20220;-68
2021/05/11 08:40:20;;;;;;;4.27;3.90;;;;;;;16.32;71.75;96963.34;5001572;28;20252;-68
2021/05/11 08:42:48;;;;;;;3.70;3.40;;;;;;;16.71;70.54;96938.91;5001163;28;20220;-68
2021/05/11 08:45:16;;;;;;;3.60;3.40;;;;;;;16.83;70.05;96930.91;5000815;28;20201;-69
2021/05/11 08:47:52;;;;;;;4.83;3.67;;;;;;;17.13;68.03;96956.00;5001856;28;20209;-69
2021/05/11 08:50:23;;;;;;;3.53;3.23;;;;;;;17.14;68.40;96961.13;5001444;28;20221;-69
2021/05/11 08:53:13;;;;;;;3.30;3.10;;;;;;;17.58;66.20;96939.31;5000889;28;20211;-69
2021/05/11 09:04:37;;;;;;;4.00;3.70;;;;;;;16.51;71.21;97014.09;5000122;28;20778;-68
2021/05/11 09:24:23;;;;;;;4.10;3.90;;;;;;;17.73;65.39;96962.16;5001121;28;20307;-70
2021/05/11 09:26:55;;;;;;;3.90;3.70;;;;;;;17.14;67.44;96976.38;5000967;28;20205;-69
2021/05/11 09:29:28;;;;;;;3.80;3.50;;;;;;;17.35;66.99;96975.81;4997729;28;20201;-70
2021/05/11 09:32:13;;;;;;;4.23;3.93;;;;;;;17.81;64.94;96990.47;5001088;28;20227;-68
2021/05/11 09:34:54;;;;;;;4.77;3.80;;;;;;;18.27;62.79;97002.16;4999856;28;20209;-68
2021/05/11 09:54:35;;;;;;;4.10;3.80;;;;;;;18.79;60.62;96969.03;5000754;28;20212;-68
2021/05/11 10:00:26;;;;;;;4.27;4.07;;;;;;;18.47;61.85;96953.44;4991031;28;20216;-71
2021/05/11 10:32:04;;;;;;;4.80;4.30;;;;;;;18.26;64.91;96912.03;4994666;28;20324;-67
2021/05/11 10:48:43;;;;;;;4.67;4.37;;;;;;;17.88;67.13;96921.47;5003503;28;20211;-69
2021/05/11 10:51:22;;;;;;;5.20;4.87;;;;;;;18.35;63.81;96929.34;5000656;28;20256;-69
2021/05/11 10:53:58;;;;;;;5.30;5.00;;;;;;;18.51;64.74;96946.53;5003041;28;20200;-68
2021/05/11 10:56:51;;;;;;;5.33;4.83;;;;;;;18.25;65.87;96955.16;5004330;28;20212;-70
2021/05/11 11:05:39;;;;;;;6.23;5.67;;;;;;;18.08;66.29;96959.41;5001300;28;20368;-69
2021/05/11 11:08:28;;;;;;;6.83;6.23;;;;;;;18.03;66.30;96953.97;5004403;28;20577;-68
2021/05/11 11:11:09;;;;;;;5.87;5.47;;;;;;;18.45;64.08;96960.94;5003160;28;20876;-69
2021/05/11 11:13:39;;;;;;;5.87;5.47;;;;;;;18.44;64.20;96959.28;5003221;28;20687;-67
2021/05/11 11:16:07;;;;;;;5.53;5.13;;;;;;;18.09;65.35;96954.88;5003379;28;20573;-71
2021/05/11 11:18:35;;;;;;;6.70;6.20;;;;;;;17.76;66.24;96954.44;5003436;28;20756;-70
2021/05/11 11:21:19;;;;;;;6.27;5.87;;;;;;;17.66;66.92;96954.22;5001954;28;20244;-68
2021/05/11 11:23:48;;;;;;;7.07;6.47;;;;;;;17.86;67.03;96947.69;5001941;28;20282;-69
2021/05/11 11:26:23;;;;;;;6.10;5.63;;;;;;;17.82;67.52;96946.53;5002803;28;20700;-68
2021/05/11 11:28:59;;;;;;;6.23;5.83;;;;;;;17.91;67.51;96948.59;5001769;28;20212;-72
2021/05/11 11:31:27;;;;;;;6.43;5.93;;;;;;;18.25;66.07;96949.81;5001102;28;20228;-69
2021/05/11 11:34:20;;;;;;;7.20;6.50;;;;;;;18.28;65.80;96952.84;5002357;28;20267;-69
2021/05/11 11:36:49;;;;;;;6.40;5.90;;;;;;;18.22;65.17;96940.38;5002119;28;20215;-67
2021/05/11 11:39:18;;;;;;;6.13;5.63;;;;;;;17.74;67.24;96945.03;5002462;28;20228;-68
2021/05/11 11:41:46;;;;;;;6.27;5.90;;;;;;;17.82;67.13;96947.34;4999252;28;20239;-71
2021/05/11 11:44:15;;;;;;;7.00;6.53;;;;;;;17.70;68.51;96946.56;5001660;28;20569;-70
2021/05/11 11:46:43;;;;;;;6.50;5.97;;;;;;;17.74;67.83;96939.66;5001060;28;20614;-69
2021/05/11 11:49:16;;;;;;;7.77;7.07;;;;;;;17.71;68.86;96935.59;4999916;28;20291;-69
2021/05/11 11:51:45;;;;;;;6.13;5.67;;;;;;;17.86;68.13;96932.41;4999509;28;20228;-68
2021/05/11 11:54:19;;;;;;;5.80;5.43;;;;;;;17.74;68.41;96932.44;5003201;28;20235;-67
2021/05/11 11:59:32;;;;;;;6.23;5.83;;;;;;;17.76;68.45;96948.28;5001913;28;20224;-68
2021/05/11 12:02:01;;;;;;;6.90;6.43;;;;;;;17.71;68.62;96948.19;5001838;28;20236;-70
2021/05/11 12:04:30;;;;;;;7.67;7.07;;;;;;;17.42;69.85;96945.41;5002689;28;20209;-68
2021/05/11 12:07:04;;;;;;;6.80;6.40;;;;;;;17.54;69.07;96940.06;5003098;28;20205;-69
2021/05/11 12:09:31;;;;;;;8.00;7.50;;;;;;;17.30;70.92;96940.06;5002541;28;20220;-68
2021/05/11 12:12:01;;;;;;;7.10;6.60;;;;;;;17.21;71.60;96952.97;5002175;28;20330;-70
2021/05/11 12:14:29;;;;;;;7.90;7.30;;;;;;;17.46;70.83;96946.56;5002540;28;20227;-69
2021/05/11 12:16:57;;;;;;;7.70;7.20;;;;;;;17.55;70.36;96952.41;5000439;28;20669;-69
2021/05/11 12:19:29;;;;;;;8.50;7.90;;;;;;;17.12;71.57;96967.75;4998859;28;20225;-68
2021/05/11 12:22:00;;;;;;;8.53;7.93;;;;;;;17.18;71.68;96956.13;5000986;28;20334;-66
2021/05/11 12:24:29;;;;;;;8.87;8.27;;;;;;;17.32;71.18;96962.06;4999867;28;20201;-68
2021/05/11 12:27:11;;;;;;;8.07;7.57;;;;;;;17.03;72.54;96968.09;5002125;28;20208;-69
2021/05/11 12:29:38;;;;;;;8.83;8.13;;;;;;;17.05;71.75;96967.88;4999511;28;20697;-68
2021/05/11 12:32:06;;;;;;;8.20;7.60;;;;;;;17.05;71.29;96952.63;5003946;28;20201;-68
2021/05/11 12:34:33;;;;;;;7.67;7.03;;;;;;;17.06;71.98;96945.41;5000779;28;20209;-68
2021/05/11 12:37:02;;;;;;;8.37;7.67;;;;;;;17.17;71.80;96941.09;5002518;28;20205;-69
2021/05/11 12:39:36;;;;;;;8.27;7.77;;;;;;;17.48;70.11;96933.75;4999539;28;20239;-68
2021/05/11 12:42:17;;;;;;;7.60;7.07;;;;;;;17.49;70.74;96930.03;5003325;28;20256;-69
2021/05/11 12:44:46;;;;;;;7.23;6.73;;;;;;;17.55;71.09;96922.94;5001440;28;20209;-68
2021/05/11 12:47:16;;;;;;;7.07;6.57;;;;;;;17.46;71.18;96925.16;5003100;28;20216;-68
2021/05/11 12:49:44;;;;;;;6.97;6.47;;;;;;;17.54;71.08;96922.09;5002944;28;20207;-69
2021/05/11 12:52:12;;;;;;;8.20;7.50;;;;;;;17.22;72.09;96927.81;5002853;28;20213;-69
2021/05/11 12:54:46;;;;;;;7.27;6.77;;;;;;;17.18;72.80;96919.47;4998714;28;20768;-68
2021/05/11 12:57:31;;;;;;;7.37;6.70;;;;;;;17.05;72.80;96923.19;5002450;28;20209;-66
2021/05/11 13:00:01;;;;;;;7.07;6.47;;;;;;;17.09;73.17;96920.03;5000989;28;20233;-69
2021/05/11 13:02:43;;;;;;;7.10;6.60;;;;;;;17.24;71.66;96919.56;5002020;28;20699;-69
2021/05/11 13:16:53;;;;;;;6.57;5.93;;;;;;;17.26;71.36;96930.88;5001734;28;20299;-69
2021/05/11 13:22:25;;;;;;;6.47;6.00;;;;;;;16.97;72.81;96946.75;5002882;28;20216;-71
2021/05/11 13:25:12;;;;;;;6.57;6.10;;;;;;;17.15;72.49;96959.25;5001534;28;20201;-71
2021/05/11 13:27:44;;;;;;;5.87;5.37;;;;;;;17.18;73.18;96972.16;4999269;28;20205;-69
2021/05/11 13:30:25;;;;;;;6.70;6.20;;;;;;;17.05;74.14;96974.03;5001621;28;20705;-67
2021/05/11 13:33:01;;;;;;;6.30;5.90;;;;;;;17.45;72.75;96969.88;4997505;28;20697;-72
2021/05/11 13:35:28;;;;;;;6.53;6.13;;;;;;;17.51;72.09;96978.81;4995788;28;20210;-69
2021/05/11 13:37:56;;;;;;;6.70;6.30;;;;;;;17.46;72.24;96989.41;4999182;28;20205;-69
2021/05/11 13:40:24;;;;;;;6.07;5.50;;;;;;;17.73;71.30;96978.22;5000344;28;20229;-70
2021/05/11 13:42:52;;;;;;;6.50;6.00;;;;;;;18.25;68.71;96973.94;4999999;28;20239;-72
2021/05/11 13:45:19;;;;;;;6.40;5.80;;;;;;;19.12;66.02;96971.19;4999917;28;20219;-70
2021/05/11 13:47:57;;;;;;;6.53;6.13;;;;;;;19.23;64.20;96979.16;5001205;28;20216;-68
2021/05/11 13:50:33;;;;;;;6.17;5.77;;;;;;;19.17;64.27;96973.97;4999608;28;20224;-69
2021/05/11 13:53:01;;;;;;;6.07;5.67;;;;;;;19.07;64.72;96978.09;5001260;28;20212;-69
2021/05/11 13:55:37;;;;;;;6.83;5.90;;;;;;;19.02;64.73;96993.31;5001106;28;20295;-69
2021/05/11 14:03:35;;;;;;;5.70;5.30;;;;;;;18.18;68.38;96969.53;5001365;28;20223;-71
2021/05/11 14:06:03;;;;;;;5.63;5.30;;;;;;;17.92;70.37;96968.19;5001758;28;20268;-69
2021/05/11 14:08:30;;;;;;;4.97;4.67;;;;;;;17.90;69.72;96971.09;5006004;28;20748;-69
2021/05/11 14:10:58;;;;;;;5.93;5.33;;;;;;;17.62;70.75;96969.16;5005389;28;20345;-69
2021/05/11 14:13:26;;;;;;;5.57;5.20;;;;;;;17.59;70.67;96964.25;5003965;28;20212;-70
2021/05/11 14:15:53;;;;;;;4.93;4.57;;;;;;;17.67;70.81;96965.78;5006200;28;20201;-70
2021/05/11 14:18:21;;;;;;;5.17;4.83;;;;;;;17.68;70.72;96968.22;5004763;28;20294;-70
2021/05/11 14:20:48;;;;;;;5.03;4.73;;;;;;;17.47;71.54;96969.63;5004517;28;20228;-69
2021/05/11 14:23:16;;;;;;;4.90;4.60;;;;;;;17.42;71.73;96966.84;5005856;28;20201;-68
2021/05/11 14:25:44;;;;;;;5.77;5.43;;;;;;;17.51;71.45;96968.09;5006088;28;20721;-69
2021/05/11 14:28:12;;;;;;;4.90;4.53;;;;;;;17.41;71.98;96955.28;5006163;28;20548;-72
2021/05/11 14:30:39;;;;;;;4.40;4.10;;;;;;;17.32;72.05;96964.72;5006019;28;20275;-70
2021/05/11 14:33:07;;;;;;;5.23;4.70;;;;;;;17.31;72.26;96960.44;5005263;28;20231;-70
2021/05/11 14:35:35;;;;;;;4.83;4.53;;;;;;;17.24;71.99;96957.06;5002181;28;20245;-68
2021/05/11 14:38:03;;;;;;;4.80;4.43;;;;;;;17.32;72.08;96956.69;5004970;28;20771;-69
2021/05/11 14:40:30;;;;;;;4.67;4.37;;;;;;;17.19;72.56;96966.59;5004288;28;20244;-72
2021/05/11 14:42:58;;;;;;;4.40;4.00;;;;;;;17.36;72.92;96980.13;5006098;28;20204;-69
2021/05/11 14:45:26;;;;;;;3.67;3.50;;;;;;;17.28;72.91;96967.06;5006189;28;20292;-68
2021/05/11 14:47:54;;;;;;;4.37;4.03;;;;;;;17.30;72.82;96975.69;5005528;28;20299;-69
2021/05/11 14:50:23;;;;;;;4.10;3.80;;;;;;;17.31;73.62;96984.53;5004036;28;20729;-68
2021/05/11 14:52:53;;;;;;;4.53;4.23;;;;;;;17.10;74.27;96973.34;5005771;28;20209;-69
2021/05/11 14:55:24;;;;;;;4.93;4.53;;;;;;;16.95;75.29;96967.56;5004521;28;20649;-70
2021/05/11 14:57:51;;;;;;;5.40;4.30;;;;;;;16.79;76.53;96965.34;5004759;28;20220;-70
2021/05/11 15:00:23;;;;;;;4.40;4.10;;;;;;;16.78;76.96;96969.06;5003350;28;20708;-71
2021/05/11 15:02:52;;;;;;;5.07;4.77;;;;;;;16.69;78.07;96967.75;5002300;28;20209;-68
2021/05/11 15:05:20;;;;;;;4.63;4.23;;;;;;;16.76;78.54;96962.31;5003490;28;20360;-70
2021/05/11 15:07:49;;;;;;;5.30;4.90;;;;;;;16.63;80.29;96961.44;5005456;28;20211;-69